createdAt,value
2023-03-06T00:00:06.030Z,5.80
2023-03-06T00:05:10.584Z,5.90
2023-03-06T00:10:08.055Z,5.84
2023-03-06T00:15:06.501Z,5.70
2023-03-06T00:20:03.672Z,5.64
2023-03-06T00:25:00.513Z,5.75
2023-03-06T00:29:58.158Z,5.72
2023-03-06T00:34:56.292Z,5.99
2023-03-06T00:39:53.267Z,5.93
2023-03-06T00:44:52.227Z,5.97
2023-03-06T00:49:49.835Z,6.01
2023-03-06T00:54:47.676Z,5.95
2023-03-06T00:59:47.090Z,6.19
2023-03-06T01:04:43.732Z,6.30
2023-03-06T01:09:41.323Z,6.06
2023-03-06T01:14:38.909Z,5.89
2023-03-06T01:19:35.990Z,5.67
2023-03-06T01:24:32.892Z,5.72
2023-03-06T01:29:29.456Z,5.58
2023-03-06T01:34:26.878Z,5.61
2023-03-06T01:39:23.512Z,5.71
2023-03-06T01:44:20.168Z,5.73
2023-03-06T01:49:19.608Z,5.37
2023-03-06T01:54:22.794Z,5.78
2023-03-06T01:59:21.781Z,5.84
2023-03-06T02:04:18.910Z,5.89
2023-03-06T02:09:16.241Z,5.87
2023-03-06T02:14:16.191Z,5.83
2023-03-06T02:19:22.656Z,5.85
2023-03-06T02:24:23.786Z,5.58
2023-03-06T02:29:22.851Z,5.41
2023-03-06T02:34:38.405Z,5.57
2023-03-06T02:39:38.952Z,5.34
2023-03-06T02:44:36.737Z,5.23
2023-03-06T02:49:34.521Z,5.09
2023-03-06T02:54:31.115Z,5.05
2023-03-06T02:59:28.934Z,5.00
2023-03-06T03:04:26.932Z,4.75
2023-03-06T03:09:23.876Z,4.74
2023-03-06T03:14:21.354Z,4.77
2023-03-06T03:19:18.211Z,4.79
2023-03-06T03:24:17.026Z,4.99
2023-03-06T03:29:13.887Z,5.32
2023-03-06T03:34:11.345Z,5.47
2023-03-06T03:39:11.594Z,5.48
2023-03-06T03:44:11.944Z,5.55
2023-03-06T03:49:08.801Z,5.27
2023-03-06T03:54:06.817Z,5.55
2023-03-06T03:59:09.633Z,5.58
2023-03-06T04:04:13.908Z,5.46
2023-03-06T04:09:12.260Z,5.49
2023-03-06T04:14:09.670Z,5.34
2023-03-06T04:19:06.577Z,5.46
2023-03-06T04:24:06.529Z,5.53
2023-03-06T04:29:03.390Z,5.22
2023-03-06T04:34:01.583Z,5.24
2023-03-06T04:38:59.204Z,5.46
2023-03-06T04:43:56.492Z,5.22
2023-03-06T04:48:53.319Z,5.04
2023-03-06T04:53:55.471Z,4.91
2023-03-06T04:58:52.279Z,4.57
2023-03-06T05:03:49.526Z,4.47
2023-03-06T05:08:46.223Z,4.30
2023-03-06T05:13:45.155Z,4.34
2023-03-06T05:18:41.940Z,4.38
2023-03-06T05:23:38.542Z,4.01
2023-03-06T05:28:35.559Z,4.06
2023-03-06T05:33:33.544Z,3.89
2023-03-06T05:38:30.380Z,4.00
2023-03-06T05:43:27.122Z,3.96
2023-03-06T05:48:24.060Z,3.91
2023-03-06T05:53:21.523Z,3.93
2023-03-06T05:58:18.316Z,3.80
2023-03-06T06:03:15.175Z,3.56
2023-03-06T06:08:12.066Z,3.69
2023-03-06T06:13:09.596Z,3.54
2023-03-06T06:18:06.401Z,3.83
2023-03-06T06:23:03.369Z,3.83
2023-03-06T06:28:00.025Z,3.71
2023-03-06T06:33:07.589Z,4.09
2023-03-06T06:38:10.252Z,4.38
2023-03-06T06:43:07.048Z,4.85
2023-03-06T06:48:04.651Z,4.97
2023-03-06T06:53:01.388Z,4.46
2023-03-06T06:57:58.452Z,4.38
2023-03-06T07:02:55.241Z,4.13
2023-03-06T07:07:55.381Z,4.21
2023-03-06T07:12:52.288Z,4.74
2023-03-06T07:23:21.714Z,4.97
2023-03-06T07:28:19.662Z,4.89
2023-03-06T07:41:13.949Z,4.95
2023-03-06T08:05:01.995Z,5.23
2023-03-06T08:10:46.810Z,5.34
2023-03-06T08:16:37.993Z,5.29
2023-03-06T08:22:35.700Z,5.84
2023-03-06T08:34:47.369Z,5.83
2023-03-06T08:52:21.077Z,6.70
2023-03-06T09:16:58.268Z,7.48
2023-03-06T09:41:52.108Z,8.55
2023-03-06T09:47:07.349Z,8.46
2023-03-06T09:52:10.807Z,8.71
2023-03-06T09:57:14.143Z,9.07
2023-03-06T10:02:14.161Z,8.90
2023-03-06T10:07:14.582Z,9.16
2023-03-06T10:12:19.146Z,9.22
2023-03-06T10:17:19.263Z,9.36
2023-03-06T10:22:32.813Z,9.52
2023-03-06T10:27:48.043Z,9.36
2023-03-06T10:32:58.098Z,9.39
2023-03-06T10:38:20.093Z,9.76
2023-03-06T10:43:48.791Z,9.76
2023-03-06T10:48:56.693Z,10.03
2023-03-06T10:53:54.572Z,10.14
2023-03-06T10:59:04.729Z,10.08
2023-03-06T11:04:15.192Z,10.38
2023-03-06T11:09:32.985Z,10.35
2023-03-06T11:14:30.193Z,10.37
2023-03-06T11:19:32.526Z,10.40
2023-03-06T11:24:38.162Z,10.49
2023-03-06T11:29:38.875Z,10.57
2023-03-06T11:34:44.194Z,10.54
2023-03-06T11:39:43.424Z,10.65
2023-03-06T11:44:55.680Z,10.95
2023-03-06T11:50:00.883Z,10.76
2023-03-06T11:54:58.090Z,11.00
2023-03-06T12:00:04.645Z,11.08
2023-03-06T12:05:12.779Z,11.18
2023-03-06T12:10:17.379Z,11.27
2023-03-06T12:15:24.485Z,11.25
2023-03-06T12:20:29.605Z,11.63
2023-03-06T12:25:32.734Z,11.48
2023-03-06T12:30:45.563Z,11.44
2023-03-06T12:35:50.316Z,11.73
2023-03-06T12:40:54.030Z,11.60
2023-03-06T12:45:54.286Z,11.68
2023-03-06T12:50:52.390Z,11.55
2023-03-06T12:55:50.597Z,11.52
2023-03-06T13:01:03.719Z,11.50
2023-03-06T13:06:15.662Z,11.45
2023-03-06T13:11:23.612Z,11.55
2023-03-06T13:16:22.868Z,11.58
2023-03-06T13:21:38.234Z,11.67
2023-03-06T13:27:34.197Z,11.64
2023-03-06T13:33:05.244Z,11.59
2023-03-06T13:38:02.189Z,11.58
2023-03-06T13:43:14.313Z,11.75
2023-03-06T13:48:43.138Z,11.83
2023-03-06T13:53:53.318Z,11.87
2023-03-06T13:58:57.833Z,11.81
2023-03-06T14:04:07.910Z,12.12
2023-03-06T14:09:06.047Z,12.01
2023-03-06T14:14:03.311Z,11.97
2023-03-06T14:19:06.350Z,11.88
2023-03-06T14:24:03.935Z,11.99
2023-03-06T14:29:01.216Z,11.78
2023-03-06T14:33:58.938Z,11.93
2023-03-06T14:39:00.045Z,12.07
2023-03-06T14:44:09.930Z,12.10
2023-03-06T14:49:07.405Z,12.13
2023-03-06T14:54:04.960Z,12.15
2023-03-06T14:59:03.459Z,11.96
2023-03-06T15:04:00.657Z,11.99
2023-03-06T15:14:58.640Z,12.00
2023-03-06T15:19:56.129Z,11.96
2023-03-06T15:24:53.354Z,12.04
2023-03-06T15:29:50.246Z,12.01
2023-03-06T15:35:12.767Z,11.95
2023-03-06T15:40:17.980Z,12.03
2023-03-06T15:45:15.863Z,12.05
2023-03-06T15:50:19.538Z,11.91
2023-03-06T15:55:17.978Z,11.97
2023-03-06T16:00:26.991Z,11.75
2023-03-06T16:05:25.705Z,11.73
2023-03-06T16:10:23.200Z,11.80
2023-03-06T16:15:21.288Z,11.83
2023-03-06T16:20:18.945Z,11.73
2023-03-06T16:25:17.066Z,11.68
2023-03-06T16:30:17.394Z,11.67
2023-03-06T16:35:19.112Z,11.70
2023-03-06T16:40:19.748Z,11.62
2023-03-06T16:45:17.370Z,11.57
2023-03-06T16:50:20.935Z,11.61
2023-03-06T16:55:18.729Z,11.51
2023-03-06T17:00:18.038Z,11.28
2023-03-06T17:05:15.479Z,11.05
2023-03-06T17:10:14.150Z,11.09
2023-03-06T17:15:11.862Z,11.23
2023-03-06T17:20:09.523Z,11.28
2023-03-06T17:25:06.765Z,10.90
2023-03-06T17:30:04.058Z,11.18
2023-03-06T17:35:01.573Z,11.38
2023-03-06T17:40:00.591Z,11.16
2023-03-06T17:44:57.300Z,10.95
2023-03-06T17:49:54.124Z,11.11
2023-03-06T17:54:51.629Z,11.15
2023-03-06T17:59:48.637Z,10.96
2023-03-06T18:04:45.574Z,11.27
2023-03-06T18:09:42.705Z,11.13
2023-03-06T18:14:40.173Z,10.96
2023-03-06T18:19:37.409Z,10.59
2023-03-06T18:24:34.108Z,10.80
2023-03-06T18:29:30.758Z,10.91
2023-03-06T18:34:28.386Z,11.00
2023-03-06T18:39:25.052Z,10.95
2023-03-06T18:44:21.888Z,10.46
2023-03-06T18:49:18.660Z,10.34
2023-03-06T18:54:16.436Z,10.51
2023-03-06T18:59:14.160Z,10.57
2023-03-06T19:04:10.948Z,10.40
2023-03-06T19:09:07.890Z,10.22
2023-03-06T19:14:05.513Z,10.46
2023-03-06T19:19:02.300Z,10.57
2023-03-06T19:23:59.050Z,10.34
2023-03-06T19:28:55.903Z,10.05
2023-03-06T19:33:53.794Z,10.34
2023-03-06T19:38:53.033Z,10.54
2023-03-06T19:43:51.672Z,10.59
2023-03-06T19:48:48.612Z,10.54
2023-03-06T19:53:45.984Z,10.21
2023-03-06T19:58:42.564Z,10.45
2023-03-06T20:03:39.332Z,10.26
2023-03-06T20:08:36.234Z,10.45
2023-03-06T20:13:33.459Z,10.37
2023-03-06T20:18:31.361Z,10.36
2023-03-06T20:23:28.432Z,10.33
2023-03-06T20:28:25.353Z,9.69
2023-03-06T20:33:22.821Z,9.73
2023-03-06T20:38:19.635Z,10.00
2023-03-06T20:43:16.337Z,10.26
2023-03-06T20:48:13.162Z,10.40
2023-03-06T20:53:10.828Z,10.50
2023-03-06T20:58:10.568Z,10.59
2023-03-06T21:03:07.470Z,10.53
2023-03-06T21:08:05.120Z,10.39
2023-03-06T21:13:02.984Z,10.43
2023-03-06T21:18:00.605Z,10.14
2023-03-06T21:23:01.208Z,10.38
2023-03-06T21:27:59.526Z,10.37
2023-03-06T21:32:57.034Z,10.50
2023-03-06T21:37:53.573Z,10.47
2023-03-06T21:42:50.540Z,10.37
2023-03-06T21:47:47.711Z,10.45
2023-03-06T21:52:47.539Z,10.43
2023-03-06T21:57:44.113Z,10.28
2023-03-06T22:02:40.799Z,10.25
2023-03-06T22:07:39.778Z,10.14
2023-03-06T22:12:37.375Z,10.25
2023-03-06T22:17:36.588Z,10.25
2023-03-06T22:22:33.518Z,10.29
2023-03-06T22:27:30.482Z,10.35
2023-03-06T22:32:32.626Z,10.39
2023-03-06T22:37:31.097Z,10.31
2023-03-06T22:42:28.094Z,10.39
2023-03-06T22:47:25.843Z,9.94
2023-03-06T22:52:23.197Z,9.86
2023-03-06T22:57:21.614Z,10.05
2023-03-06T23:02:18.972Z,10.15
2023-03-06T23:07:15.617Z,10.18
2023-03-06T23:12:12.957Z,10.26
2023-03-06T23:17:28.493Z,9.73
2023-03-06T23:22:43.801Z,9.61
2023-03-06T23:27:59.453Z,9.04
2023-03-06T23:32:57.992Z,9.10
2023-03-06T23:37:55.657Z,9.29
2023-03-06T23:42:52.501Z,9.52
2023-03-06T23:47:49.992Z,9.68
2023-03-06T23:52:46.648Z,9.71
2023-03-06T23:57:43.206Z,9.72
